createdAt,value
2018-09-09T00:00:08.146Z,1.00
2018-09-09T00:02:43.505Z,1.00
2018-09-09T00:05:18.608Z,1.00
2018-09-09T00:07:53.909Z,1.00
2018-09-09T00:10:29.406Z,1.00
2018-09-09T00:13:04.915Z,1.00
2018-09-09T00:15:40.405Z,1.00
2018-09-09T00:18:15.879Z,1.00
2018-09-09T00:20:51.219Z,1.00
2018-09-09T00:23:26.735Z,1.00
2018-09-09T00:26:02.331Z,1.00
2018-09-09T00:28:37.838Z,1.00
2018-09-09T00:31:13.256Z,1.00
2018-09-09T00:33:48.670Z,1.00
2018-09-09T00:36:24.226Z,1.00
2018-09-09T00:38:59.846Z,1.00
2018-09-09T00:41:35.176Z,1.00
2018-09-09T00:44:10.596Z,1.00
2018-09-09T00:46:46.447Z,1.00
2018-09-09T00:49:27.015Z,1.00
2018-09-09T00:52:07.440Z,1.00
2018-09-09T00:54:42.650Z,1.00
2018-09-09T00:57:17.959Z,1.00
2018-09-09T00:59:53.509Z,1.00
2018-09-09T01:02:28.999Z,1.00
2018-09-09T01:05:04.496Z,1.00
2018-09-09T01:07:39.926Z,1.00
2018-09-09T01:10:15.568Z,1.00
2018-09-09T01:12:51.036Z,1.00
2018-09-09T01:15:26.436Z,1.00
2018-09-09T01:18:01.879Z,1.00
2018-09-09T01:20:37.436Z,1.00
2018-09-09T01:23:12.845Z,1.00
2018-09-09T01:25:48.179Z,1.00
2018-09-09T01:28:23.574Z,1.00
2018-09-09T01:30:59.105Z,1.00
2018-09-09T01:33:34.429Z,1.00
2018-09-09T01:36:09.918Z,1.00
2018-09-09T01:38:45.359Z,1.00
2018-09-09T01:41:20.955Z,1.00
2018-09-09T01:43:56.579Z,1.00
2018-09-09T01:46:32.289Z,1.00
2018-09-09T01:49:07.899Z,1.00
2018-09-09T01:51:43.489Z,1.00
2018-09-09T01:54:19.078Z,1.00
2018-09-09T01:56:54.558Z,1.00
2018-09-09T01:59:30.056Z,1.00
2018-09-09T02:02:05.691Z,1.00
2018-09-09T02:04:41.179Z,1.00
2018-09-09T02:07:16.760Z,1.00
2018-09-09T02:09:52.125Z,1.00
2018-09-09T02:12:27.536Z,1.00
2018-09-09T02:15:03.135Z,1.00
2018-09-09T02:17:38.758Z,1.00
2018-09-09T02:20:14.217Z,1.00
2018-09-09T02:22:49.842Z,1.00
2018-09-09T02:25:25.179Z,1.00
2018-09-09T02:28:00.648Z,1.00
2018-09-09T02:30:36.166Z,1.00
2018-09-09T02:33:11.976Z,1.00
2018-09-09T02:35:47.667Z,1.00
2018-09-09T02:38:23.205Z,1.00
2018-09-09T02:40:58.629Z,1.00
2018-09-09T02:43:34.244Z,1.00
2018-09-09T02:46:09.555Z,1.00
2018-09-09T02:48:45.009Z,1.00
2018-09-09T02:51:20.416Z,1.00
2018-09-09T02:53:56.226Z,1.00
2018-09-09T02:56:31.695Z,1.00
2018-09-09T02:59:07.390Z,1.00
2018-09-09T03:01:42.790Z,4.80
2018-09-09T03:04:18.239Z,1.00
2018-09-09T03:06:53.559Z,1.00
2018-09-09T03:09:29.094Z,1.00
2018-09-09T03:12:04.615Z,1.00
2018-09-09T03:14:40.077Z,31.60
2018-09-09T03:17:15.334Z,90.00
2018-09-09T03:19:50.803Z,45.70
2018-09-09T03:22:26.155Z,55.50
2018-09-09T03:25:01.518Z,63.60
2018-09-09T03:27:36.798Z,91.20
2018-09-09T03:30:12.398Z,85.60
2018-09-09T03:32:47.817Z,22.00
2018-09-09T03:35:23.124Z,17.40
2018-09-09T03:37:58.499Z,1.00
2018-09-09T03:40:34.079Z,1.00
2018-09-09T03:43:09.358Z,1.00
2018-09-09T03:45:44.867Z,1.00
2018-09-09T03:48:20.439Z,1.00
2018-09-09T03:50:55.994Z,1.00
2018-09-09T03:53:31.445Z,1.00
2018-09-09T03:56:06.944Z,1.00
2018-09-09T03:58:42.396Z,1.00
2018-09-09T04:01:17.578Z,1.00
2018-09-09T04:03:52.970Z,1.00
2018-09-09T04:06:28.370Z,7.90
2018-09-09T04:09:04.705Z,1.00
2018-09-09T04:11:40.166Z,1.00
2018-09-09T04:14:15.647Z,1.00
2018-09-09T04:16:50.902Z,1.00
2018-09-09T04:19:26.275Z,5.90
2018-09-09T04:22:01.445Z,39.90
2018-09-09T04:24:36.899Z,34.10
2018-09-09T04:27:12.408Z,36.60
2018-09-09T04:29:47.728Z,10.60
2018-09-09T04:32:23.010Z,28.40
2018-09-09T04:34:58.429Z,52.20
2018-09-09T04:37:33.675Z,97.60
2018-09-09T04:40:09.170Z,96.40
2018-09-09T04:42:44.575Z,27.60
2018-09-09T04:45:19.806Z,35.30
2018-09-09T04:47:55.270Z,10.30
2018-09-09T04:50:30.577Z,44.80
2018-09-09T04:53:06.146Z,39.60
2018-09-09T04:55:41.506Z,30.50
2018-09-09T04:58:16.869Z,60.00
2018-09-09T05:00:52.671Z,80.80
2018-09-09T05:03:28.070Z,1.00
2018-09-09T05:06:03.490Z,1.00
2018-09-09T05:08:38.955Z,4.50
2018-09-09T05:11:14.486Z,42.30
2018-09-09T05:13:50.086Z,99.90
2018-09-09T05:16:25.488Z,99.90
2018-09-09T05:19:01.085Z,99.90
2018-09-09T05:21:36.425Z,99.90
2018-09-09T05:24:11.917Z,99.90
2018-09-09T05:26:47.245Z,99.90
2018-09-09T05:29:22.562Z,99.90
2018-09-09T05:31:57.735Z,99.90
2018-09-09T05:34:33.243Z,99.90
2018-09-09T05:37:08.814Z,99.90
2018-09-09T05:39:44.427Z,99.90
2018-09-09T05:42:19.685Z,99.90
2018-09-09T05:44:55.088Z,99.90
2018-09-09T05:47:30.448Z,99.90
2018-09-09T05:50:05.936Z,77.90
2018-09-09T05:52:41.611Z,55.50
2018-09-09T05:55:17.382Z,97.70
2018-09-09T05:57:52.975Z,10.60
2018-09-09T06:00:28.392Z,42.10
2018-09-09T06:03:03.926Z,62.10
2018-09-09T06:05:39.485Z,99.90
2018-09-09T06:08:14.885Z,99.90
2018-09-09T06:10:55.017Z,99.90
2018-09-09T06:13:30.371Z,49.60
2018-09-09T06:16:05.710Z,38.50
2018-09-09T06:18:40.989Z,96.30
2018-09-09T06:21:16.425Z,83.40
2018-09-09T06:23:51.808Z,1.00
2018-09-09T06:26:27.107Z,1.00
2018-09-09T06:29:02.667Z,21.40
2018-09-09T06:31:38.271Z,1.00
2018-09-09T06:34:13.908Z,1.00
2018-09-09T06:36:49.568Z,1.00
2018-09-09T06:39:24.812Z,1.00
2018-09-09T06:42:00.140Z,1.00
2018-09-09T06:44:35.518Z,1.00
2018-09-09T06:47:11.015Z,1.00
2018-09-09T06:49:46.400Z,1.00
2018-09-09T06:52:21.628Z,1.00
2018-09-09T06:54:57.120Z,1.00
2018-09-09T06:57:32.545Z,1.00
2018-09-09T07:00:07.939Z,1.00
2018-09-09T07:02:43.288Z,1.00
2018-09-09T07:05:18.578Z,1.00
2018-09-09T07:07:54.078Z,1.00
2018-09-09T07:10:29.389Z,1.00
2018-09-09T07:13:04.682Z,1.00
2018-09-09T07:15:39.938Z,1.00
2018-09-09T07:18:15.299Z,1.00
2018-09-09T07:20:50.511Z,1.00
2018-09-09T07:23:26.227Z,1.00
2018-09-09T07:26:01.808Z,1.00
2018-09-09T07:28:37.482Z,1.00
2018-09-09T07:31:12.938Z,1.00
2018-09-09T07:33:48.379Z,1.00
2018-09-09T07:36:23.949Z,1.00
2018-09-09T07:38:59.425Z,1.00
2018-09-09T07:41:34.797Z,99.90
2018-09-09T07:44:10.218Z,1.00
2018-09-09T07:46:45.446Z,99.90
2018-09-09T07:49:20.853Z,99.90
2018-09-09T07:51:56.299Z,1.00
2018-09-09T07:54:31.604Z,99.90
2018-09-09T07:57:06.792Z,99.90
2018-09-09T07:59:42.167Z,99.90
2018-09-09T08:02:17.321Z,99.90
2018-09-09T08:04:52.699Z,99.90
2018-09-09T08:07:28.019Z,99.90
2018-09-09T08:10:03.475Z,99.90
2018-09-09T08:12:38.817Z,99.90
2018-09-09T08:15:14.396Z,99.90
2018-09-09T08:17:49.742Z,99.90
2018-09-09T08:20:25.100Z,99.90
2018-09-09T08:23:00.537Z,99.90
2018-09-09T08:25:35.720Z,99.90
2018-09-09T08:28:11.046Z,99.90
2018-09-09T08:30:46.269Z,99.90
2018-09-09T08:33:21.671Z,99.90
2018-09-09T08:35:57.029Z,99.90
2018-09-09T08:38:32.566Z,99.90
2018-09-09T08:41:08.327Z,99.90
2018-09-09T08:43:43.526Z,99.90
2018-09-09T08:46:19.036Z,99.90
2018-09-09T08:48:54.466Z,99.90
2018-09-09T08:51:29.817Z,99.90
2018-09-09T08:54:05.299Z,99.90
2018-09-09T08:56:40.926Z,99.90
2018-09-09T08:59:16.326Z,99.90
2018-09-09T09:01:52.032Z,99.90
2018-09-09T09:04:27.741Z,99.90
2018-09-09T09:07:03.189Z,99.90
2018-09-09T09:09:38.566Z,99.90
2018-09-09T09:12:13.987Z,99.90
2018-09-09T09:14:49.465Z,99.90
2018-09-09T09:17:24.669Z,99.90
2018-09-09T09:20:00.107Z,99.90
2018-09-09T09:22:35.810Z,99.90
2018-09-09T09:25:11.239Z,99.90
2018-09-09T09:27:46.674Z,99.90
2018-09-09T09:30:22.269Z,99.90
2018-09-09T09:32:57.706Z,99.90
2018-09-09T09:35:38.467Z,1.00
2018-09-09T09:38:14.036Z,99.90
2018-09-09T09:40:49.798Z,99.90
2018-09-09T09:43:25.357Z,99.90
2018-09-09T09:46:00.794Z,99.90
2018-09-09T09:48:36.164Z,99.90
2018-09-09T09:51:11.656Z,99.90
2018-09-09T09:53:47.049Z,99.90
2018-09-09T09:56:22.531Z,99.90
2018-09-09T09:58:57.949Z,99.90
2018-09-09T10:01:33.925Z,99.90
2018-09-09T10:04:09.356Z,99.90
2018-09-09T10:06:44.691Z,99.90
2018-09-09T10:09:20.189Z,99.90
2018-09-09T10:11:55.699Z,99.90
2018-09-09T10:14:31.080Z,99.90
2018-09-09T10:17:06.934Z,99.90
2018-09-09T10:19:42.369Z,99.90
2018-09-09T10:22:17.675Z,99.90
2018-09-09T10:24:53.121Z,99.90
2018-09-09T10:27:28.645Z,99.90
2018-09-09T10:30:04.017Z,99.90
2018-09-09T10:32:39.596Z,99.90
2018-09-09T10:35:14.827Z,99.90
2018-09-09T10:37:50.046Z,99.90
2018-09-09T10:40:25.388Z,99.90
2018-09-09T10:43:00.890Z,99.90
2018-09-09T10:45:36.431Z,99.90
2018-09-09T10:48:11.789Z,99.90
2018-09-09T10:50:47.226Z,99.90
2018-09-09T10:53:22.629Z,99.90
2018-09-09T10:55:57.901Z,99.90
2018-09-09T10:58:33.666Z,99.90
2018-09-09T11:01:09.119Z,99.90
2018-09-09T11:03:44.487Z,99.90
2018-09-09T11:06:19.817Z,99.90
2018-09-09T11:08:55.296Z,99.90
2018-09-09T11:11:30.789Z,99.90
2018-09-09T11:14:06.085Z,99.90
2018-09-09T11:16:41.750Z,99.90
2018-09-09T11:19:17.221Z,99.90
2018-09-09T11:21:52.669Z,99.90
2018-09-09T11:24:28.151Z,99.90
2018-09-09T11:27:03.437Z,99.90
2018-09-09T11:29:38.737Z,99.90
2018-09-09T11:32:14.358Z,99.90
2018-09-09T11:34:49.649Z,99.90
2018-09-09T11:37:25.029Z,99.90
2018-09-09T11:40:00.289Z,99.90
2018-09-09T11:42:35.828Z,99.90
2018-09-09T11:45:11.469Z,99.90
2018-09-09T11:47:46.966Z,99.90
2018-09-09T11:50:22.640Z,99.90
2018-09-09T11:52:57.992Z,99.90
2018-09-09T11:55:33.426Z,99.90
2018-09-09T11:58:09.019Z,99.90
2018-09-09T12:00:44.546Z,99.90
2018-09-09T12:03:19.756Z,99.90
2018-09-09T12:05:55.089Z,99.90
2018-09-09T12:08:30.478Z,99.90
2018-09-09T12:11:05.845Z,99.90
2018-09-09T12:13:41.500Z,99.90
2018-09-09T12:16:17.029Z,99.90
2018-09-09T12:18:52.689Z,99.90
2018-09-09T12:21:28.176Z,99.90
2018-09-09T12:24:03.663Z,99.90
2018-09-09T12:26:39.130Z,99.90
2018-09-09T12:29:14.575Z,99.90
2018-09-09T12:31:49.916Z,99.90
2018-09-09T12:34:25.308Z,99.90
2018-09-09T12:37:00.721Z,99.90
2018-09-09T12:39:36.174Z,99.90
2018-09-09T12:42:11.896Z,99.90
2018-09-09T12:44:52.538Z,99.90
2018-09-09T12:47:33.089Z,99.90
2018-09-09T12:50:08.466Z,99.90
2018-09-09T12:52:43.731Z,99.90
2018-09-09T12:55:19.079Z,99.90
2018-09-09T12:57:54.486Z,99.90
2018-09-09T13:00:29.984Z,99.90
2018-09-09T13:03:05.625Z,99.90
2018-09-09T13:05:40.989Z,99.90
2018-09-09T13:08:16.474Z,99.90
2018-09-09T13:10:51.891Z,99.90
2018-09-09T13:13:27.427Z,99.90
2018-09-09T13:16:02.865Z,99.90
2018-09-09T13:18:38.104Z,99.90
2018-09-09T13:21:13.439Z,99.90
2018-09-09T13:23:48.916Z,99.90
2018-09-09T13:26:24.151Z,99.90
2018-09-09T13:29:00.137Z,99.90
2018-09-09T13:31:35.359Z,99.90
2018-09-09T13:34:11.028Z,99.90
2018-09-09T13:36:46.425Z,99.90
2018-09-09T13:39:21.928Z,99.90
2018-09-09T13:41:57.450Z,99.90
2018-09-09T13:44:32.919Z,99.90
2018-09-09T13:47:08.623Z,99.90
2018-09-09T13:49:44.030Z,99.90
2018-09-09T13:52:19.545Z,99.90
2018-09-09T13:54:54.825Z,99.90
2018-09-09T13:57:30.270Z,99.90
2018-09-09T14:00:05.849Z,99.90
2018-09-09T14:02:41.380Z,99.90
2018-09-09T14:05:16.826Z,99.90
2018-09-09T14:07:53.172Z,99.90
2018-09-09T14:10:28.546Z,99.90
2018-09-09T14:13:04.201Z,99.90
2018-09-09T14:15:39.869Z,99.90
2018-09-09T14:18:15.220Z,99.90
2018-09-09T14:20:50.711Z,99.90
2018-09-09T14:23:26.320Z,99.90
2018-09-09T14:26:01.928Z,99.90
2018-09-09T14:28:37.430Z,99.90
2018-09-09T14:31:12.825Z,99.90
2018-09-09T14:33:48.667Z,99.90
2018-09-09T14:36:24.323Z,99.90
2018-09-09T14:39:00.607Z,99.90
2018-09-09T14:41:35.888Z,99.90
2018-09-09T14:44:11.198Z,99.90
2018-09-09T14:46:46.545Z,99.90
2018-09-09T14:49:24.909Z,99.90
2018-09-09T14:52:00.372Z,99.90
2018-09-09T14:54:36.068Z,99.90
2018-09-09T14:57:11.458Z,99.90
2018-09-09T14:59:47.147Z,99.90
2018-09-09T15:02:22.638Z,99.90
2018-09-09T15:04:58.442Z,99.90
2018-09-09T15:07:33.978Z,99.90
2018-09-09T15:10:09.565Z,99.90
2018-09-09T15:12:45.108Z,99.90
2018-09-09T15:15:20.622Z,99.90
2018-09-09T15:17:56.204Z,99.90
2018-09-09T15:20:31.778Z,99.90
2018-09-09T15:23:07.108Z,99.90
2018-09-09T15:25:42.345Z,99.90
2018-09-09T15:28:17.810Z,99.90
2018-09-09T15:30:53.043Z,99.90
2018-09-09T15:33:28.285Z,99.90
2018-09-09T15:36:03.731Z,99.90
2018-09-09T15:38:39.317Z,99.90
2018-09-09T15:41:15.074Z,99.90
2018-09-09T15:43:52.246Z,99.90
2018-09-09T15:46:28.308Z,99.90
2018-09-09T15:49:03.655Z,99.90
2018-09-09T15:51:39.122Z,99.90
2018-09-09T15:54:14.477Z,99.90
2018-09-09T15:56:50.037Z,99.90
2018-09-09T15:59:25.647Z,99.90
2018-09-09T16:02:01.017Z,99.90
2018-09-09T16:04:36.355Z,99.90
2018-09-09T16:07:11.950Z,99.90
2018-09-09T16:09:47.351Z,99.90
2018-09-09T16:12:22.627Z,99.90
2018-09-09T16:14:57.786Z,99.90
2018-09-09T16:17:33.115Z,99.90
2018-09-09T16:20:08.948Z,99.90
2018-09-09T16:22:44.634Z,99.90
2018-09-09T16:25:19.808Z,99.90
2018-09-09T16:27:55.318Z,99.90
2018-09-09T16:30:30.670Z,99.90
2018-09-09T16:33:06.157Z,99.90
2018-09-09T16:35:41.796Z,99.90
2018-09-09T16:38:17.037Z,99.90
2018-09-09T16:40:52.375Z,99.90
2018-09-09T16:43:27.648Z,99.90
2018-09-09T16:46:03.276Z,99.90
2018-09-09T16:48:38.726Z,99.90
2018-09-09T16:51:14.285Z,99.90
2018-09-09T16:53:49.919Z,99.90
2018-09-09T16:56:25.267Z,99.90
2018-09-09T16:59:00.830Z,99.90
2018-09-09T17:01:36.155Z,99.90
2018-09-09T17:04:11.560Z,99.90
2018-09-09T17:06:47.077Z,99.90
2018-09-09T17:09:22.667Z,99.90
2018-09-09T17:11:58.319Z,99.90
2018-09-09T17:14:33.952Z,99.90
2018-09-09T17:17:09.404Z,99.90
2018-09-09T17:19:44.668Z,99.90
2018-09-09T17:22:19.998Z,99.90
2018-09-09T17:24:55.448Z,99.90
2018-09-09T17:27:30.904Z,99.90
2018-09-09T17:30:06.570Z,99.90
2018-09-09T17:32:42.099Z,99.90
2018-09-09T17:35:17.568Z,99.90
2018-09-09T17:37:52.997Z,1.00
2018-09-09T17:40:28.279Z,1.00
2018-09-09T17:43:03.752Z,1.00
2018-09-09T17:45:39.055Z,1.00
2018-09-09T17:48:14.608Z,1.00
2018-09-09T17:50:49.909Z,1.00
2018-09-09T17:53:25.439Z,1.00
2018-09-09T17:56:00.945Z,1.00
2018-09-09T17:58:36.421Z,1.00
2018-09-09T18:01:11.969Z,1.00
2018-09-09T18:03:47.358Z,1.00
2018-09-09T18:06:22.735Z,1.00
2018-09-09T18:08:58.398Z,1.00
2018-09-09T18:11:33.777Z,1.00
2018-09-09T18:14:09.265Z,1.00
2018-09-09T18:16:44.729Z,1.00
2018-09-09T18:19:20.208Z,1.00
2018-09-09T18:21:55.396Z,1.00
2018-09-09T18:24:30.718Z,1.00
2018-09-09T18:27:06.219Z,1.00
2018-09-09T18:29:41.590Z,1.00
2018-09-09T18:32:17.032Z,1.00
2018-09-09T18:34:52.638Z,1.00
2018-09-09T18:37:27.920Z,1.00
2018-09-09T18:40:03.108Z,1.00
2018-09-09T18:42:38.406Z,1.00
2018-09-09T18:45:13.817Z,1.00
2018-09-09T18:47:49.234Z,1.00
2018-09-09T18:50:24.808Z,1.00
2018-09-09T18:53:00.374Z,1.00
2018-09-09T18:55:35.889Z,1.00
2018-09-09T18:58:11.465Z,28.00
2018-09-09T19:00:47.295Z,98.50
2018-09-09T19:03:22.608Z,99.90
2018-09-09T19:05:58.098Z,99.90
2018-09-09T19:08:33.381Z,99.90
2018-09-09T19:11:08.799Z,99.90
2018-09-09T19:13:44.099Z,99.90
2018-09-09T19:16:19.399Z,99.90
2018-09-09T19:18:54.920Z,99.90
2018-09-09T19:21:30.458Z,99.90
2018-09-09T19:24:05.916Z,1.00
2018-09-09T19:26:41.456Z,1.00
2018-09-09T19:29:17.216Z,1.00
2018-09-09T19:31:53.716Z,1.00
2018-09-09T19:34:29.211Z,1.00
2018-09-09T19:37:05.039Z,1.00
2018-09-09T19:39:40.595Z,1.00
2018-09-09T19:42:16.249Z,62.90
2018-09-09T19:44:51.727Z,99.90
2018-09-09T19:47:27.353Z,99.90
2018-09-09T19:50:03.776Z,99.90
2018-09-09T19:52:39.375Z,1.00
2018-09-09T19:55:14.767Z,1.00
2018-09-09T19:57:50.229Z,1.00
2018-09-09T20:00:25.756Z,1.00
2018-09-09T20:03:01.178Z,1.00
2018-09-09T20:05:36.699Z,1.00
2018-09-09T20:08:12.194Z,1.00
2018-09-09T20:10:47.708Z,57.30
2018-09-09T20:13:23.258Z,99.90
2018-09-09T20:15:58.677Z,99.90
2018-09-09T20:18:34.146Z,99.90
2018-09-09T20:21:09.878Z,99.90
2018-09-09T20:23:46.555Z,99.90
2018-09-09T20:26:21.957Z,1.00
2018-09-09T20:28:57.119Z,1.00
2018-09-09T20:31:32.475Z,1.00
2018-09-09T20:34:07.801Z,1.00
2018-09-09T20:36:43.480Z,1.00
2018-09-09T20:39:18.925Z,99.90
2018-09-09T20:41:54.357Z,99.90
2018-09-09T20:44:29.735Z,99.90
2018-09-09T20:47:05.157Z,99.90
2018-09-09T20:49:40.437Z,42.20
2018-09-09T20:52:15.678Z,1.00
2018-09-09T20:54:51.045Z,1.00
2018-09-09T20:57:26.442Z,1.00
2018-09-09T21:00:01.789Z,99.90
2018-09-09T21:02:37.049Z,12.10
2018-09-09T21:05:12.448Z,1.00
2018-09-09T21:07:47.898Z,1.00
2018-09-09T21:10:23.519Z,1.00
2018-09-09T21:12:59.088Z,1.00
2018-09-09T21:15:34.770Z,99.90
2018-09-09T21:18:10.131Z,99.90
2018-09-09T21:20:45.502Z,76.70
2018-09-09T21:23:20.935Z,53.10
2018-09-09T21:25:56.447Z,30.90
2018-09-09T21:28:31.687Z,2.80
2018-09-09T21:31:07.325Z,48.70
2018-09-09T21:33:43.038Z,99.90
2018-09-09T21:36:18.380Z,99.90
2018-09-09T21:38:53.978Z,99.90
2018-09-09T21:41:29.267Z,66.40
2018-09-09T21:44:04.675Z,1.00
2018-09-09T21:46:40.323Z,1.00
2018-09-09T21:49:15.686Z,1.00
2018-09-09T21:51:50.969Z,1.00
2018-09-09T21:54:26.255Z,1.00
2018-09-09T21:57:01.595Z,1.00
2018-09-09T21:59:37.119Z,1.00
2018-09-09T22:02:14.287Z,1.00
2018-09-09T22:04:49.699Z,95.70
2018-09-09T22:07:25.105Z,99.90
2018-09-09T22:10:00.488Z,99.90
2018-09-09T22:12:35.908Z,99.90
2018-09-09T22:15:11.303Z,99.90
2018-09-09T22:17:46.628Z,99.90
2018-09-09T22:20:22.063Z,1.00
2018-09-09T22:22:57.417Z,1.00
2018-09-09T22:25:32.838Z,1.00
2018-09-09T22:28:08.315Z,1.00
2018-09-09T22:30:43.678Z,1.00
2018-09-09T22:33:19.015Z,1.00
2018-09-09T22:35:54.418Z,1.00
2018-09-09T22:38:29.730Z,1.00
2018-09-09T22:41:05.426Z,1.00
2018-09-09T22:43:40.790Z,1.00
2018-09-09T22:46:16.245Z,1.00
2018-09-09T22:48:51.784Z,99.90
2018-09-09T22:51:27.011Z,99.90
2018-09-09T22:54:02.698Z,99.90
2018-09-09T22:56:37.897Z,99.90
2018-09-09T22:59:13.435Z,92.30
2018-09-09T23:01:48.914Z,99.90
2018-09-09T23:04:24.266Z,99.90
2018-09-09T23:06:59.795Z,99.90
2018-09-09T23:09:35.255Z,20.00
2018-09-09T23:12:10.591Z,99.90
2018-09-09T23:14:46.174Z,99.90
2018-09-09T23:17:21.948Z,99.90
2018-09-09T23:19:57.538Z,99.90
2018-09-09T23:22:33.028Z,99.90
2018-09-09T23:25:08.339Z,99.90
2018-09-09T23:27:43.670Z,99.90
2018-09-09T23:30:19.248Z,1.00
2018-09-09T23:32:54.728Z,23.10
2018-09-09T23:35:30.126Z,1.00
2018-09-09T23:38:05.648Z,20.20
2018-09-09T23:40:40.778Z,99.90
2018-09-09T23:43:16.408Z,1.00
2018-09-09T23:45:51.799Z,37.60
2018-09-09T23:48:27.239Z,1.00
2018-09-09T23:51:02.908Z,17.00
2018-09-09T23:53:38.418Z,1.00
2018-09-09T23:56:13.838Z,1.00
2018-09-09T23:58:49.321Z,1.00
